NCAR-RAP Real-Time Weather Data

Output produced by METARs form (06 May 2021  16:55 UTC)
found at http://weather.rap.ucar.edu/surface/
 
KWVI 061646Z AUTO 00000KT 10SM SCT007 13/10 A3007 RMK AO2 T01330100
KWVI 061617Z AUTO 00000KT 10SM OVC006 12/09 A3007 RMK AO2 T01170089
KWVI 061553Z AUTO 00000KT 10SM OVC005 11/09 A3007 RMK AO2 SLP181 T01110094
KWVI 061540Z AUTO 00000KT 8SM OVC005 11/09 A3007 RMK AO2 T01110094
KWVI 061453Z AUTO 00000KT 7SM OVC003 10/09 A3007 RMK AO2 SLP182 T01000094 53015
KWVI 061421Z AUTO 00000KT 2SM BR OVC002 10/09 A3006 RMK AO2 T01000094
KWVI 061412Z AUTO 27003KT 1 1/4SM BR OVC002 10/09 A3006 RMK AO2 T01000094
KWVI 061353Z AUTO 28004KT 1/2SM FG VV002 09/09 A3005 RMK AO2 SLP174 T00940089
KWVI 061342Z AUTO 26003KT 1/4SM FG VV002 10/09 A3004 RMK AO2 T01000094
KWVI 061325Z AUTO 00000KT 3/4SM BR VV003 10/09 A3004 RMK AO2 T01000094
KWVI 061312Z AUTO 29003KT 1 1/4SM BR OVC002 10/09 A3004 RMK AO2 T01000094
KWVI 061303Z AUTO 00000KT 1 3/4SM BR OVC002 10/09 A3003 RMK AO2 T01000094
KWVI 061253Z AUTO 00000KT 3SM BR OVC002 10/09 A3003 RMK AO2 SLP168 T01000094
KWVI 061250Z AUTO 00000KT 3SM BR OVC002 10/09 A3003 RMK AO2
KWVI 061220Z AUTO 00000KT 1 3/4SM BR OVC002 10/09 A3002 RMK AO2 T01000094
KWVI 061153Z AUTO 00000KT 3SM BR OVC002 10/09 A3002 RMK AO2 SLP166 T01000094 10106 20100 56003
KWVI 061053Z AUTO 00000KT 6SM BR OVC003 10/09 A3003 RMK AO2 SLP168 T01000094
KWVI 060953Z AUTO 29003KT 7SM OVC003 10/09 A3003 RMK AO2 SLP168 T01000094
KWVI 060853Z AUTO 15003KT 8SM OVC003 10/09 A3003 RMK AO2 SLP170 T01000094 51000
KWVI 060753Z AUTO 00000KT 8SM OVC003 10/09 A3003 RMK AO2 SLP169 T01000089 402280078
KWVI 060653Z AUTO 00000KT 9SM OVC003 10/09 A3003 RMK AO2 SLP170 T01000094
KWVI 060553Z AUTO 22003KT 7SM OVC003 10/09 A3003 RMK AO2 SLP169 T01000094 10161 20100 51017
KWVI 060453Z AUTO 00000KT 4SM BR OVC003 10/09 A3003 RMK AO2 SLP167 T01000094